Time;durP1;ratioP1;P1;durP2;ratioP2;P2;SDS_P1;SDS_P2;PMS_P1;PMS_P2;Temp;Humidity;BMP_temperature;BMP_pressure;BME280_temperature;BME280_humidity;BME280_pressure;Samples;Min_cycle;Max_cycle;Signal;HPM_P1;HPM_P2
2021/06/12 00:00:14;;;;;;;8.32;7.63;;;18.20;99.90;;;;;;5094851;28;20506;-75
2021/06/12 00:02:40;;;;;;;8.10;7.32;;;18.10;99.90;;;;;;5095184;28;20044;-75
2021/06/12 00:05:08;;;;;;;7.20;6.50;;;18.10;99.90;;;;;;5094952;28;20044;-75
2021/06/12 00:07:34;;;;;;;7.28;6.68;;;18.00;99.90;;;;;;5094773;28;20044;-75
2021/06/12 00:10:01;;;;;;;7.70;7.03;;;18.00;99.90;;;;;;5094508;28;20043;-75
2021/06/12 00:12:28;;;;;;;8.38;7.63;;;18.00;99.90;;;;;;5094431;28;20123;-75
2021/06/12 00:14:54;;;;;;;7.65;6.97;;;18.10;99.90;;;;;;5094347;28;20048;-75
2021/06/12 00:17:21;;;;;;;8.13;7.43;;;18.10;99.90;;;;;;5093929;28;20552;-74
2021/06/12 00:19:47;;;;;;;21.40;15.52;;;18.00;99.90;;;;;;5094680;28;20373;-74
2021/06/12 00:22:13;;;;;;;30.70;23.73;;;18.10;99.90;;;;;;5094946;28;20503;-74
2021/06/12 00:24:39;;;;;;;8.90;8.10;;;18.00;99.90;;;;;;5095226;28;20048;-74
2021/06/12 00:27:05;;;;;;;7.85;7.15;;;17.90;99.90;;;;;;5084379;28;20048;-74
2021/06/12 00:29:33;;;;;;;8.32;7.53;;;17.80;99.90;;;;;;5073820;28;20086;-74
2021/06/12 00:31:59;;;;;;;9.15;8.25;;;17.60;99.90;;;;;;5092540;28;20496;-75
2021/06/12 00:34:25;;;;;;;8.93;7.18;;;17.50;99.90;;;;;;5094638;28;20051;-74
2021/06/12 00:36:52;;;;;;;8.35;7.65;;;17.40;99.90;;;;;;5094186;28;20507;-74
2021/06/12 00:39:18;;;;;;;7.93;7.30;;;17.30;99.90;;;;;;5094446;28;20048;-74
2021/06/12 00:41:47;;;;;;;8.30;7.70;;;17.30;99.90;;;;;;5093913;28;20066;-75
2021/06/12 00:44:14;;;;;;;8.65;7.95;;;17.20;99.90;;;;;;5093736;28;20048;-75
2021/06/12 00:46:43;;;;;;;8.55;7.75;;;17.10;99.90;;;;;;5093421;28;20501;-75
2021/06/12 00:49:26;;;;;;;8.43;7.72;;;17.20;99.90;;;;;;5093116;28;20133;-75
2021/06/12 00:51:52;;;;;;;11.15;7.80;;;17.10;99.90;;;;;;5073271;28;20094;-75
2021/06/12 00:54:18;;;;;;;8.57;7.88;;;17.00;99.90;;;;;;5072020;28;20048;-75
2021/06/12 00:56:44;;;;;;;8.35;7.63;;;17.10;99.90;;;;;;5073023;28;20419;-75
2021/06/12 00:59:11;;;;;;;9.55;8.57;;;17.10;99.90;;;;;;5073041;28;20047;-74
2021/06/12 01:01:37;;;;;;;8.93;8.23;;;17.10;99.90;;;;;;5072780;28;20487;-74
2021/06/12 01:04:05;;;;;;;9.75;8.85;;;17.10;99.90;;;;;;5073043;28;20047;-74
2021/06/12 01:06:31;;;;;;;9.20;8.40;;;17.30;99.90;;;;;;5072752;28;20083;-74
2021/06/12 01:08:57;;;;;;;8.80;8.00;;;17.30;99.90;;;;;;5072656;28;20041;-76
2021/06/12 01:11:23;;;;;;;9.65;8.85;;;17.30;99.90;;;;;;5073649;28;20053;-74
2021/06/12 01:13:58;;;;;;;10.13;9.13;;;17.30;99.90;;;;;;5073527;28;20415;-74
2021/06/12 01:16:31;;;;;;;10.18;9.15;;;17.20;99.90;;;;;;5062145;28;20052;-74
2021/06/12 01:19:01;;;;;;;9.27;8.48;;;17.20;99.90;;;;;;5053536;28;20045;-74
2021/06/12 01:21:33;;;;;;;9.38;8.48;;;17.10;99.90;;;;;;5053813;28;20489;-75
2021/06/12 01:24:15;;;;;;;;;;;17.20;99.90;;;;;;5054004;28;20052;-75
2021/06/12 01:27:16;;;;;;;10.30;9.27;;;17.20;99.90;;;;;;5060417;28;19943;-75
2021/06/12 01:30:03;;;;;;;11.15;9.07;;;17.20;99.90;;;;;;5068984;28;20048;-74
2021/06/12 01:32:31;;;;;;;9.60;8.88;;;17.30;99.90;;;;;;5073040;28;20052;-75
2021/06/12 01:34:59;;;;;;;10.10;9.30;;;17.30;99.90;;;;;;5072423;28;20044;-75
2021/06/12 01:37:26;;;;;;;10.77;9.73;;;17.30;99.90;;;;;;5073104;28;20488;-75
2021/06/12 01:39:53;;;;;;;9.88;8.98;;;17.20;99.90;;;;;;5075328;28;20048;-75
2021/06/12 01:42:21;;;;;;;11.20;10.20;;;17.30;99.90;;;;;;5078659;28;20056;-74
2021/06/12 01:44:49;;;;;;;10.10;9.30;;;17.30;99.90;;;;;;5078086;28;20048;-74
2021/06/12 01:47:17;;;;;;;9.68;8.88;;;17.20;99.90;;;;;;5077651;28;20496;-74
2021/06/12 01:49:44;;;;;;;11.18;9.90;;;17.20;99.90;;;;;;5078355;28;20052;-75
2021/06/12 01:52:13;;;;;;;10.02;9.15;;;17.20;99.90;;;;;;5078998;28;20055;-74
2021/06/12 01:54:40;;;;;;;10.25;9.45;;;17.20;99.90;;;;;;5082854;28;20049;-74
2021/06/12 01:57:07;;;;;;;10.18;9.23;;;17.20;99.90;;;;;;5080281;28;20040;-74
2021/06/12 01:59:33;;;;;;;10.13;9.23;;;17.40;99.90;;;;;;5078952;28;20051;-75
2021/06/12 02:02:02;;;;;;;9.10;8.30;;;17.50;99.90;;;;;;5067206;28;20052;-75
2021/06/12 02:04:30;;;;;;;11.23;9.95;;;17.60;99.90;;;;;;5073980;28;20055;-75
2021/06/12 02:07:00;;;;;;;9.15;8.45;;;17.60;99.90;;;;;;5082989;28;20044;-75
2021/06/12 02:09:27;;;;;;;10.90;9.82;;;17.50;99.90;;;;;;5082393;28;20051;-75
2021/06/12 02:11:53;;;;;;;9.93;8.95;;;17.50;99.90;;;;;;5069334;28;20040;-75
2021/06/12 02:14:19;;;;;;;10.50;9.43;;;17.50;99.90;;;;;;5076638;28;20056;-74
2021/06/12 02:16:46;;;;;;;10.43;9.40;;;17.50;99.90;;;;;;5076283;28;20481;-75
2021/06/12 02:19:13;;;;;;;10.45;8.52;;;17.60;99.90;;;;;;5076295;28;20044;-74
2021/06/12 02:21:41;;;;;;;11.93;9.98;;;17.70;99.90;;;;;;5076236;28;20492;-75
2021/06/12 02:24:08;;;;;;;10.60;9.57;;;17.70;99.90;;;;;;5076120;28;20048;-75
2021/06/12 02:26:40;;;;;;;9.50;8.60;;;17.70;99.90;;;;;;5076071;28;20045;-74
2021/06/12 02:29:07;;;;;;;;;;;17.60;99.90;;;;;;5076820;28;20049;-74
2021/06/12 02:31:42;;;;;;;9.52;8.55;;;17.70;99.90;;;;;;5076240;28;19920;-74
2021/06/12 02:34:08;;;;;;;12.13;8.73;;;17.90;99.90;;;;;;5076700;28;20078;-74
2021/06/12 02:36:34;;;;;;;10.23;9.27;;;17.90;99.90;;;;;;5076079;28;20045;-74
2021/06/12 02:39:02;;;;;;;10.02;9.15;;;18.00;99.90;;;;;;5076094;28;20048;-74
2021/06/12 02:41:28;;;;;;;9.02;8.23;;;17.90;99.90;;;;;;5075537;28;20044;-75
2021/06/12 02:43:54;;;;;;;9.02;8.13;;;17.90;99.90;;;;;;5056566;28;20099;-74
2021/06/12 02:46:24;;;;;;;8.93;8.20;;;17.80;99.90;;;;;;5055881;28;20115;-75
2021/06/12 02:48:53;;;;;;;8.60;7.80;;;17.70;99.90;;;;;;5061800;28;20114;-74
2021/06/12 02:51:20;;;;;;;9.05;8.25;;;17.70;99.90;;;;;;5076030;28;20056;-74
2021/06/12 02:53:47;;;;;;;9.93;9.07;;;17.80;99.90;;;;;;5076028;28;20049;-74
2021/06/12 02:56:17;;;;;;;9.40;8.70;;;17.80;99.90;;;;;;5075334;28;20062;-74
2021/06/12 02:58:44;;;;;;;9.20;8.35;;;17.90;99.90;;;;;;5075820;28;20048;-74
2021/06/12 03:01:10;;;;;;;8.95;7.72;;;17.90;99.90;;;;;;5075581;28;20055;-75
2021/06/12 03:03:37;;;;;;;9.15;8.23;;;17.90;99.90;;;;;;5075416;28;20488;-75
2021/06/12 03:06:05;;;;;;;10.00;8.85;;;17.90;99.90;;;;;;5075379;28;20045;-74
2021/06/12 03:08:35;;;;;;;9.25;8.48;;;17.80;99.90;;;;;;5075143;28;20094;-74
2021/06/12 03:11:02;;;;;;;9.25;8.45;;;17.80;99.90;;;;;;5075701;28;20045;-74
2021/06/12 03:13:31;;;;;;;9.43;8.63;;;17.80;99.90;;;;;;5075815;28;20048;-74
2021/06/12 03:16:00;;;;;;;10.80;9.70;;;17.90;99.90;;;;;;5075276;28;20045;-74
2021/06/12 03:18:27;;;;;;;10.27;9.00;;;17.80;99.90;;;;;;5073912;28;20048;-74
2021/06/12 03:20:56;;;;;;;9.60;8.80;;;17.90;99.90;;;;;;5075397;28;20373;-74
2021/06/12 03:23:22;;;;;;;9.93;9.02;;;18.00;99.90;;;;;;5074952;28;20094;-78
2021/06/12 03:25:50;;;;;;;13.02;8.15;;;18.00;99.90;;;;;;5074975;28;20048;-75
2021/06/12 03:28:17;;;;;;;9.55;8.75;;;18.10;99.90;;;;;;5074316;28;20408;-75
2021/06/12 03:30:45;;;;;;;9.50;8.70;;;18.10;99.90;;;;;;5075070;28;20048;-75
2021/06/12 03:33:12;;;;;;;10.20;9.38;;;18.10;99.90;;;;;;5075241;28;20048;-75
2021/06/12 03:35:40;;;;;;;10.52;9.52;;;18.10;99.90;;;;;;5074304;28;20553;-75
2021/06/12 03:38:08;;;;;;;9.60;8.20;;;18.10;99.90;;;;;;5075054;28;20503;-75
2021/06/12 03:40:36;;;;;;;8.13;7.53;;;18.10;99.90;;;;;;5074944;28;20048;-74
2021/06/12 03:43:08;;;;;;;11.20;8.68;;;18.10;99.90;;;;;;5074748;28;20557;-75
2021/06/12 03:45:40;;;;;;;;;;;18.10;99.90;;;;;;5074497;28;20066;-75
2021/06/12 03:48:09;;;;;;;8.70;8.00;;;18.20;99.90;;;;;;5074774;28;19973;-74
2021/06/12 03:50:36;;;;;;;9.43;8.63;;;18.20;99.90;;;;;;5073918;28;20480;-75
2021/06/12 03:53:04;;;;;;;9.07;8.27;;;18.30;99.90;;;;;;5074869;28;20075;-75
2021/06/12 03:55:30;;;;;;;10.38;9.38;;;18.30;99.90;;;;;;5075018;28;20102;-75
2021/06/12 04:00:38;;;;;;;9.52;8.65;;;18.40;99.90;;;;;;5073136;28;20045;-75
2021/06/12 04:03:05;;;;;;;9.95;9.10;;;18.40;99.90;;;;;;5069240;28;20094;-75
2021/06/12 04:05:37;;;;;;;10.13;9.18;;;18.50;99.90;;;;;;5054125;28;20045;-75
2021/06/12 04:08:04;;;;;;;10.65;8.20;;;18.50;99.90;;;;;;5066898;28;20480;-75
2021/06/12 04:10:30;;;;;;;9.77;8.88;;;18.60;99.90;;;;;;5074522;28;20053;-75
2021/06/12 04:15:56;;;;;;;7.65;6.97;;;18.70;99.90;;;;;;5074863;28;20128;-76
2021/06/12 04:18:22;;;;;;;6.78;6.28;;;18.80;99.90;;;;;;5075311;28;20434;-75
2021/06/12 04:20:50;;;;;;;6.43;5.93;;;19.00;99.90;;;;;;5074681;28;20060;-75
2021/06/12 04:23:17;;;;;;;6.40;5.80;;;19.10;99.90;;;;;;5074710;28;20636;-75
2021/06/12 04:25:43;;;;;;;7.10;6.50;;;19.20;99.90;;;;;;5074626;28;20377;-74
2021/06/12 04:28:10;;;;;;;6.25;5.75;;;19.30;99.90;;;;;;5074230;28;20078;-74
2021/06/12 04:30:36;;;;;;;7.85;6.97;;;19.30;99.90;;;;;;5074327;28;20048;-74
2021/06/12 04:33:03;;;;;;;10.05;8.43;;;19.50;99.90;;;;;;5074287;28;20048;-76
2021/06/12 04:35:32;;;;;;;19.27;14.82;;;19.50;99.90;;;;;;5068477;28;20072;-74
2021/06/12 04:38:00;;;;;;;8.43;7.30;;;19.60;99.90;;;;;;5054207;28;20045;-74
2021/06/12 04:40:42;;;;;;;8.15;6.88;;;19.70;99.90;;;;;;5054280;28;20091;-74
2021/06/12 04:46:24;;;;;;;6.18;5.57;;;19.90;99.90;;;;;;5054171;28;20044;-75
2021/06/12 04:48:50;;;;;;;6.93;5.32;;;19.90;99.90;;;;;;5063731;28;20086;-75
2021/06/12 04:51:17;;;;;;;9.88;7.72;;;20.00;99.90;;;;;;5074277;28;20052;-74
2021/06/12 04:53:44;;;;;;;35.35;22.35;;;20.10;99.90;;;;;;5073502;28;20120;-74
2021/06/12 04:56:10;;;;;;;14.60;10.45;;;20.20;99.90;;;;;;5074501;28;20052;-75
2021/06/12 04:58:37;;;;;;;15.52;9.75;;;20.30;99.90;;;;;;5074744;28;20041;-76
2021/06/12 05:01:03;;;;;;;11.75;9.68;;;20.40;99.90;;;;;;5075435;28;20048;-75
2021/06/12 05:03:30;;;;;;;7.35;6.25;;;20.50;99.90;;;;;;5077474;28;20057;-75
2021/06/12 05:05:58;;;;;;;20.00;14.25;;;20.60;99.90;;;;;;5076325;28;20148;-75
2021/06/12 05:08:26;;;;;;;11.63;8.13;;;20.60;99.90;;;;;;5066284;28;20068;-75
2021/06/12 05:10:59;;;;;;;25.85;18.02;;;20.70;99.90;;;;;;5058418;28;20053;-74
2021/06/12 05:16:07;;;;;;;24.30;16.70;;;21.00;99.90;;;;;;5075646;28;20135;-75
2021/06/12 05:18:39;;;;;;;11.82;9.75;;;21.00;99.90;;;;;;5075594;28;20118;-75
2021/06/12 05:21:06;;;;;;;8.82;5.90;;;21.00;99.90;;;;;;5076164;28;20048;-76
2021/06/12 05:23:33;;;;;;;14.73;12.05;;;21.00;99.90;;;;;;5075289;28;20074;-75
2021/06/12 05:26:04;;;;;;;7.30;6.47;;;21.10;99.90;;;;;;5065220;28;20055;-76
2021/06/12 05:31:21;;;;;;;7.05;6.32;;;21.30;99.90;;;;;;5068125;28;20064;-74
2021/06/12 05:33:48;;;;;;;7.93;7.13;;;21.40;99.90;;;;;;5074674;28;20075;-75
2021/06/12 05:36:16;;;;;;;5.35;4.85;;;21.50;99.90;;;;;;5076475;28;20044;-76
2021/06/12 05:38:45;;;;;;;6.78;6.05;;;21.60;99.90;;;;;;5075729;28;20052;-75
2021/06/12 05:44:04;;;;;;;11.27;7.90;;;21.90;99.90;;;;;;5073675;28;20058;-75
2021/06/12 05:46:30;;;;;;;5.78;5.20;;;22.10;99.90;;;;;;5074719;28;20052;-74
2021/06/12 05:48:56;;;;;;;5.43;4.93;;;22.20;99.90;;;;;;5074476;28;20059;-75
2021/06/12 05:51:23;;;;;;;10.77;8.50;;;22.40;99.90;;;;;;5074692;28;20074;-74
2021/06/12 05:53:59;;;;;;;5.90;4.47;;;22.40;99.90;;;;;;5075123;28;20523;-75
2021/06/12 05:59:12;;;;;;;8.68;6.88;;;22.60;99.90;;;;;;5072566;28;20049;-75
2021/06/12 06:01:49;;;;;;;5.60;4.57;;;22.70;99.90;;;;;;5057083;28;20094;-76
2021/06/12 06:04:20;;;;;;;3.58;3.28;;;22.70;99.90;;;;;;5056981;28;20117;-75
2021/06/12 06:06:56;;;;;;;4.25;3.85;;;22.90;99.90;;;;;;5056919;28;20048;-75
2021/06/12 06:09:23;;;;;;;5.32;4.70;;;22.90;99.90;;;;;;5058504;28;20049;-76
2021/06/12 06:14:52;;;;;;;5.75;4.30;;;23.00;99.90;;;;;;5069273;28;20500;-75
2021/06/12 06:17:39;;;;;;;3.95;3.47;;;23.10;99.90;;;;;;5076404;28;20116;-76
2021/06/12 06:20:10;;;;;;;5.32;4.03;;;22.70;99.90;;;;;;5075964;28;20135;-75
2021/06/12 06:22:41;;;;;;;7.78;5.00;;;22.60;99.90;;;;;;5076000;28;20048;-76
2021/06/12 06:25:29;;;;;;;3.40;3.10;;;22.50;99.90;;;;;;5075311;28;20041;-75
2021/06/12 06:28:10;;;;;;;10.23;6.88;;;22.50;99.90;;;;;;5067841;28;20037;-76
2021/06/12 06:30:36;;;;;;;5.55;4.45;;;22.40;99.90;;;;;;5056327;28;20045;-75
2021/06/12 06:33:02;;;;;;;4.75;4.15;;;22.10;99.90;;;;;;5066363;28;20048;-75
2021/06/12 06:35:29;;;;;;;4.40;3.28;;;22.00;99.90;;;;;;5078541;28;20048;-75
2021/06/12 06:37:55;;;;;;;6.65;5.60;;;21.80;99.90;;;;;;5078250;28;20056;-75
2021/06/12 06:40:24;;;;;;;4.32;3.92;;;21.80;99.90;;;;;;5079926;28;20049;-75
2021/06/12 06:42:51;;;;;;;8.38;4.78;;;21.70;99.90;;;;;;5081353;28;20061;-75
2021/06/12 06:45:25;;;;;;;7.03;4.57;;;21.60;99.90;;;;;;5081329;28;20055;-75
2021/06/12 06:47:55;;;;;;;13.25;9.27;;;21.50;99.90;;;;;;5077974;28;20051;-75
2021/06/12 06:53:09;;;;;;;41.60;28.70;;;21.50;99.90;;;;;;5080461;28;20054;-74
2021/06/12 06:55:50;;;;;;;51.20;33.90;;;21.60;99.90;;;;;;5079816;28;20044;-76
2021/06/12 06:58:36;;;;;;;19.38;13.57;;;21.60;99.90;;;;;;5079652;28;20052;-75
2021/06/12 07:01:05;;;;;;;26.55;18.00;;;21.70;99.90;;;;;;5077928;28;20040;-75
2021/06/12 07:03:31;;;;;;;8.10;6.47;;;21.80;99.90;;;;;;5077609;28;20110;-76
2021/06/12 07:05:57;;;;;;;21.20;14.13;;;21.80;99.90;;;;;;5076802;28;20060;-75
2021/06/12 07:08:24;;;;;;;4.82;4.38;;;21.80;99.90;;;;;;5077899;28;20044;-75
2021/06/12 07:10:50;;;;;;;5.32;4.68;;;21.80;99.90;;;;;;5076615;28;20143;-74
2021/06/12 07:13:20;;;;;;;12.55;9.60;;;21.70;99.90;;;;;;5076787;28;20040;-76
2021/06/12 07:15:46;;;;;;;7.05;5.93;;;21.80;99.90;;;;;;5076854;28;20056;-75
2021/06/12 07:18:14;;;;;;;7.20;5.82;;;21.80;99.90;;;;;;5078562;28;20056;-75
2021/06/12 07:20:41;;;;;;;5.00;4.32;;;21.90;99.90;;;;;;5079119;28;20044;-75
2021/06/12 07:23:07;;;;;;;7.65;5.68;;;22.00;99.90;;;;;;5077269;28;20048;-75
2021/06/12 07:25:33;;;;;;;16.15;11.30;;;22.10;99.90;;;;;;5075272;28;20558;-76
2021/06/12 07:28:03;;;;;;;7.47;6.50;;;22.20;99.90;;;;;;5076149;28;20052;-77
2021/06/12 07:30:30;;;;;;;5.72;5.15;;;22.50;99.90;;;;;;5076522;28;20056;-75
2021/06/12 07:32:56;;;;;;;5.05;4.55;;;22.70;99.90;;;;;;5076281;28;20040;-75
2021/06/12 07:35:24;;;;;;;9.38;6.93;;;22.90;99.90;;;;;;5076072;28;20109;-74
2021/06/12 07:37:50;;;;;;;12.05;7.80;;;23.10;99.90;;;;;;5076290;28;20071;-77
2021/06/12 07:40:16;;;;;;;6.35;5.65;;;23.20;99.90;;;;;;5078458;28;20076;-76
2021/06/12 07:42:44;;;;;;;27.00;19.50;;;23.20;99.90;;;;;;5083379;28;20052;-76
2021/06/12 07:45:11;;;;;;;14.40;8.25;;;23.30;99.90;;;;;;5078214;28;20053;-77
2021/06/12 07:47:37;;;;;;;10.73;8.07;;;23.40;99.90;;;;;;5077947;28;20385;-76
2021/06/12 07:50:04;;;;;;;4.13;3.72;;;23.30;99.90;;;;;;5076920;28;20097;-71
2021/06/12 07:52:32;;;;;;;6.32;5.43;;;23.20;99.90;;;;;;5072860;28;20110;-69
2021/06/12 07:54:58;;;;;;;8.73;7.03;;;23.10;99.90;;;;;;5062038;28;20045;-71
2021/06/12 07:57:24;;;;;;;6.32;5.70;;;22.80;99.90;;;;;;5068667;28;20044;-69
2021/06/12 07:59:50;;;;;;;7.55;6.22;;;22.80;99.90;;;;;;5055075;28;20041;-70
2021/06/12 08:02:16;;;;;;;9.25;7.35;;;22.80;99.90;;;;;;5058995;28;20049;-70
2021/06/12 08:04:43;;;;;;;6.82;6.05;;;22.70;99.90;;;;;;5068970;28;20041;-70
2021/06/12 08:07:09;;;;;;;6.13;5.28;;;22.70;99.90;;;;;;5067965;28;20068;-69
2021/06/12 08:09:36;;;;;;;5.78;5.15;;;22.50;99.90;;;;;;5054152;28;20448;-71
2021/06/12 08:12:03;;;;;;;11.05;4.93;;;22.30;99.90;;;;;;5070424;28;20462;-72
2021/06/12 08:14:30;;;;;;;5.03;4.53;;;22.10;99.90;;;;;;5066363;28;20049;-72
2021/06/12 08:16:56;;;;;;;5.90;5.22;;;22.10;99.90;;;;;;5059319;28;20055;-72
2021/06/12 08:19:22;;;;;;;5.25;4.68;;;22.10;99.90;;;;;;5059262;28;20036;-69
2021/06/12 08:21:48;;;;;;;6.40;4.50;;;22.20;99.90;;;;;;5073514;28;20119;-71
2021/06/12 08:24:15;;;;;;;8.70;5.47;;;22.40;99.90;;;;;;5075650;28;20053;-72
2021/06/12 08:26:42;;;;;;;5.05;4.53;;;22.50;99.90;;;;;;5069736;28;20067;-71
2021/06/12 08:29:08;;;;;;;6.25;4.60;;;22.50;99.90;;;;;;5068758;28;20041;-70
2021/06/12 08:31:35;;;;;;;6.20;4.90;;;22.40;99.90;;;;;;5063882;28;20044;-73
2021/06/12 08:34:01;;;;;;;5.95;5.40;;;22.20;99.90;;;;;;5073854;28;20447;-70
2021/06/12 08:36:28;;;;;;;7.00;5.45;;;22.20;99.90;;;;;;5058064;28;20045;-70
2021/06/12 08:38:54;;;;;;;4.80;4.30;;;22.30;99.90;;;;;;5058890;28;20036;-67
2021/06/12 08:41:20;;;;;;;5.45;4.95;;;22.30;99.90;;;;;;5069344;28;20392;-69
2021/06/12 08:43:47;;;;;;;5.43;4.88;;;22.40;99.90;;;;;;5053748;28;20106;-68
2021/06/12 08:46:14;;;;;;;8.63;5.07;;;22.30;99.90;;;;;;5066212;28;20040;-68
2021/06/12 08:48:41;;;;;;;6.10;5.50;;;22.40;99.90;;;;;;5071207;28;20041;-67
2021/06/12 08:51:07;;;;;;;6.00;5.45;;;22.50;99.90;;;;;;5066829;28;20638;-73
2021/06/12 08:53:33;;;;;;;5.13;4.63;;;22.60;99.90;;;;;;5072912;28;20094;-76
2021/06/12 08:56:00;;;;;;;6.20;5.70;;;22.90;99.90;;;;;;5072615;28;20547;-73
2021/06/12 08:58:26;;;;;;;5.45;4.88;;;22.80;99.90;;;;;;5072798;28;20044;-73
2021/06/12 09:00:54;;;;;;;6.07;5.50;;;22.60;99.90;;;;;;5072554;28;20056;-73
2021/06/12 09:03:25;;;;;;;7.72;5.38;;;22.50;99.90;;;;;;5072651;28;20055;-74
2021/06/12 09:05:53;;;;;;;5.60;5.07;;;22.50;99.90;;;;;;5072345;28;20132;-73
2021/06/12 09:08:20;;;;;;;9.20;5.47;;;22.50;99.90;;;;;;5072516;28;20048;-75
2021/06/12 09:10:52;;;;;;;5.68;5.13;;;22.40;99.90;;;;;;5072140;28;20238;-74
2021/06/12 09:13:44;;;;;;;5.63;4.95;;;22.40;99.90;;;;;;5072694;28;20052;-74
2021/06/12 09:16:30;;;;;;;6.45;5.05;;;22.50;99.90;;;;;;5071484;28;20052;-73
2021/06/12 09:18:58;;;;;;;5.07;4.68;;;22.80;99.90;;;;;;5072444;28;20049;-72
2021/06/12 09:21:30;;;;;;;5.63;5.03;;;22.90;99.90;;;;;;5072594;28;20049;-73
2021/06/12 09:23:59;;;;;;;5.05;3.78;;;23.00;99.90;;;;;;5072318;28;20077;-74
2021/06/12 09:26:43;;;;;;;9.63;6.55;;;22.90;99.90;;;;;;5072125;28;20492;-73
2021/06/12 09:29:10;;;;;;;22.52;15.30;;;22.70;99.90;;;;;;5072008;28;20152;-74
2021/06/12 09:31:44;;;;;;;5.57;5.00;;;22.50;99.90;;;;;;5072434;28;20045;-74
2021/06/12 09:34:12;;;;;;;7.60;5.05;;;22.40;99.90;;;;;;5072636;28;20062;-73
2021/06/12 09:36:39;;;;;;;5.07;4.43;;;22.30;99.90;;;;;;5071879;28;20044;-75
2021/06/12 09:39:08;;;;;;;7.18;5.60;;;22.10;99.90;;;;;;5072200;28;20040;-74
2021/06/12 09:41:34;;;;;;;7.13;6.05;;;21.90;99.90;;;;;;5071991;28;20098;-74
2021/06/12 09:44:00;;;;;;;18.75;13.40;;;21.80;99.90;;;;;;5072386;28;20044;-74
2021/06/12 09:46:32;;;;;;;6.88;5.68;;;21.70;99.90;;;;;;5071957;28;20077;-74
2021/06/12 09:48:59;;;;;;;7.05;5.53;;;21.40;99.90;;;;;;5072164;28;20049;-74
2021/06/12 09:51:26;;;;;;;9.75;6.93;;;21.20;99.90;;;;;;5071804;28;20052;-74
2021/06/12 09:53:53;;;;;;;15.30;10.98;;;21.20;99.90;;;;;;5072111;28;20273;-74
2021/06/12 09:56:21;;;;;;;9.30;7.25;;;21.20;99.90;;;;;;5071582;28;20094;-74
2021/06/12 09:58:47;;;;;;;9.27;7.30;;;21.00;99.90;;;;;;5072038;28;20076;-73
2021/06/12 10:01:15;;;;;;;14.23;9.77;;;20.90;99.90;;;;;;5072420;28;20045;-74
2021/06/12 10:03:41;;;;;;;10.88;6.80;;;20.70;99.90;;;;;;5071799;28;20083;-73
2021/06/12 10:06:14;;;;;;;15.07;12.30;;;20.60;99.90;;;;;;5071907;28;20048;-74
2021/06/12 10:08:41;;;;;;;54.75;34.75;;;20.40;99.90;;;;;;5071457;28;20412;-73
2021/06/12 10:11:07;;;;;;;27.05;17.60;;;20.30;99.90;;;;;;5072093;28;20047;-74
2021/06/12 10:13:34;;;;;;;13.27;8.77;;;20.20;99.90;;;;;;5072295;28;20045;-74
2021/06/12 10:16:01;;;;;;;15.98;10.40;;;20.10;99.90;;;;;;5071980;28;20045;-74
2021/06/12 10:18:28;;;;;;;10.57;8.23;;;20.10;99.90;;;;;;5071861;28;20049;-73
2021/06/12 10:20:55;;;;;;;12.43;8.85;;;20.10;99.90;;;;;;5071766;28;20047;-73
2021/06/12 10:23:24;;;;;;;13.70;10.68;;;20.00;99.90;;;;;;5071741;28;20056;-74
2021/06/12 10:25:52;;;;;;;12.43;9.90;;;20.00;99.90;;;;;;5071192;28;20496;-73
2021/06/12 10:28:20;;;;;;;11.60;9.23;;;20.00;99.90;;;;;;5075812;28;20398;-73
2021/06/12 10:30:46;;;;;;;12.40;8.57;;;19.90;99.90;;;;;;5075380;28;20045;-74
2021/06/12 10:33:16;;;;;;;12.25;8.98;;;19.90;99.90;;;;;;5075657;28;20044;-74
2021/06/12 10:35:42;;;;;;;12.85;9.18;;;19.90;99.90;;;;;;5075084;28;20488;-73
2021/06/12 10:38:14;;;;;;;12.80;9.85;;;20.10;99.90;;;;;;5075314;28;20048;-74
2021/06/12 10:40:46;;;;;;;;;;;20.30;99.90;;;;;;5076041;28;20072;-73
2021/06/12 10:43:14;;;;;;;13.23;9.50;;;20.40;99.90;;;;;;5075563;28;19920;-73
2021/06/12 10:45:41;;;;;;;10.25;8.30;;;20.60;99.90;;;;;;5075100;28;20086;-74
2021/06/12 10:48:08;;;;;;;15.73;8.85;;;20.80;99.90;;;;;;5075272;28;20051;-73
2021/06/12 10:50:43;;;;;;;11.88;10.18;;;20.80;99.90;;;;;;5075258;28;20796;-73
2021/06/12 10:53:33;;;;;;;12.93;9.43;;;20.80;99.90;;;;;;5075514;28;20041;-74
2021/06/12 10:56:04;;;;;;;10.13;8.40;;;20.80;99.90;;;;;;5075235;28;20132;-74
2021/06/12 10:58:45;;;;;;;12.00;10.63;;;21.00;99.90;;;;;;5075247;28;20097;-73
2021/06/12 11:01:17;;;;;;;13.82;10.23;;;21.50;99.90;;;;;;5075377;28;20041;-75
2021/06/12 11:03:48;;;;;;;10.48;8.90;;;21.90;99.90;;;;;;5075085;28;20060;-74
2021/06/12 11:06:32;;;;;;;8.88;6.97;;;22.20;99.90;;;;;;5074916;28;20044;-73
2021/06/12 11:09:29;;;;;;;10.48;8.00;;;22.70;99.90;;;;;;5075090;28;20048;-75
2021/06/12 11:11:58;;;;;;;9.70;7.70;;;23.00;99.90;;;;;;5013075;28;20049;-74
2021/06/12 11:14:27;;;;;;;8.05;7.28;;;23.10;99.90;;;;;;5061616;28;20063;-74
2021/06/12 11:17:15;;;;;;;8.25;7.38;;;23.20;99.90;;;;;;5074577;28;20461;-74
2021/06/12 11:19:43;;;;;;;6.28;5.70;;;23.50;99.90;;;;;;5074664;28;20392;-73
2021/06/12 11:22:26;;;;;;;5.93;5.43;;;24.00;99.90;;;;;;5074892;28;20037;-74
2021/06/12 11:24:55;;;;;;;6.25;5.63;;;24.20;99.90;;;;;;5074698;28;20500;-74
2021/06/12 11:27:25;;;;;;;6.47;5.22;;;24.00;99.90;;;;;;5074293;28;20055;-73
2021/06/12 11:30:18;;;;;;;6.68;5.25;;;23.80;99.90;;;;;;5074762;28;20044;-74
2021/06/12 11:32:45;;;;;;;7.03;5.95;;;23.80;99.90;;;;;;5074827;28;20071;-74
2021/06/12 11:35:12;;;;;;;5.70;5.20;;;24.20;99.90;;;;;;5074497;28;20048;-74
2021/06/12 11:37:50;;;;;;;8.10;6.55;;;23.90;99.90;;;;;;5073600;28;20094;-74
2021/06/12 11:40:21;;;;;;;7.47;6.55;;;24.00;99.90;;;;;;5074243;28;20048;-73
2021/06/12 11:42:50;;;;;;;6.38;5.78;;;24.10;99.90;;;;;;5074542;28;20048;-74
2021/06/12 11:45:19;;;;;;;5.40;5.00;;;24.00;99.90;;;;;;5074412;28;20385;-73
2021/06/12 11:47:46;;;;;;;6.55;5.00;;;23.90;99.90;;;;;;5074358;28;20049;-73
2021/06/12 11:50:13;;;;;;;7.40;5.43;;;23.70;99.90;;;;;;5074352;28;20045;-74
2021/06/12 11:52:40;;;;;;;4.90;4.50;;;23.70;99.90;;;;;;5074157;28;20044;-74
2021/06/12 11:55:12;;;;;;;6.55;5.28;;;23.80;99.90;;;;;;5073556;28;20404;-74
2021/06/12 11:57:42;;;;;;;7.70;4.82;;;23.80;99.90;;;;;;5074303;28;20053;-74
2021/06/12 12:00:32;;;;;;;5.07;4.20;;;23.70;99.90;;;;;;5074267;28;20049;-75
2021/06/12 12:03:05;;;;;;;5.55;5.07;;;24.00;99.90;;;;;;5075251;28;20052;-74
2021/06/12 12:05:36;;;;;;;4.25;3.85;;;24.20;99.90;;;;;;5075925;28;20451;-74
2021/06/12 12:08:03;;;;;;;;;;;24.10;99.90;;;;;;5074576;28;20045;-74
2021/06/12 12:10:29;;;;;;;5.10;4.60;;;24.20;99.90;;;;;;5073820;28;19920;-74
2021/06/12 12:12:56;;;;;;;4.32;3.92;;;24.10;99.90;;;;;;5074114;28;20048;-73
2021/06/12 12:15:41;;;;;;;6.53;3.97;;;23.70;99.90;;;;;;5073507;28;20048;-74
2021/06/12 12:18:09;;;;;;;3.42;3.22;;;23.50;99.90;;;;;;5073573;28;20485;-74
2021/06/12 12:20:37;;;;;;;4.03;3.53;;;23.40;99.90;;;;;;5073528;28;20053;-73
2021/06/12 12:23:17;;;;;;;3.97;3.67;;;23.40;99.90;;;;;;5073673;28;20389;-73
2021/06/12 12:25:43;;;;;;;3.63;3.33;;;23.20;99.90;;;;;;5073439;28;20052;-74
2021/06/12 12:28:10;;;;;;;6.60;3.67;;;22.80;99.90;;;;;;5073282;28;20048;-73
2021/06/12 12:30:37;;;;;;;4.20;3.90;;;22.50;99.90;;;;;;5073346;28;20053;-73
2021/06/12 12:33:08;;;;;;;4.68;3.88;;;22.20;99.90;;;;;;5073628;28;20044;-73
2021/06/12 12:35:35;;;;;;;7.53;3.83;;;22.10;99.90;;;;;;5073216;28;20052;-74
2021/06/12 12:38:16;;;;;;;4.60;3.80;;;22.00;99.90;;;;;;5073116;28;20152;-74
2021/06/12 12:40:43;;;;;;;5.00;3.95;;;21.00;99.90;;;;;;5072968;28;20045;-75
2021/06/12 12:43:11;;;;;;;8.25;5.53;;;20.20;99.90;;;;;;5073189;28;20600;-73
2021/06/12 12:45:40;;;;;;;3.67;3.33;;;19.80;99.90;;;;;;5073237;28;20056;-73
2021/06/12 12:48:09;;;;;;;3.83;3.40;;;19.60;99.90;;;;;;5072970;28;20041;-74
2021/06/12 12:50:35;;;;;;;3.58;3.28;;;19.60;99.90;;;;;;5072805;28;20090;-74
2021/06/12 12:53:09;;;;;;;4.22;2.67;;;19.50;99.90;;;;;;5073281;28;20048;-74
2021/06/12 12:55:37;;;;;;;2.47;2.28;;;19.20;99.90;;;;;;5072976;28;20481;-74
2021/06/12 12:58:05;;;;;;;2.60;2.35;;;19.20;99.90;;;;;;5073126;28;20048;-73
2021/06/12 13:00:34;;;;;;;2.70;2.50;;;19.00;99.90;;;;;;5073064;28;20048;-73
2021/06/12 13:03:01;;;;;;;2.72;2.53;;;19.00;99.90;;;;;;5072809;28;20071;-74
2021/06/12 13:05:35;;;;;;;2.80;2.60;;;18.90;99.90;;;;;;5052530;28;20098;-73
2021/06/12 13:08:03;;;;;;;3.78;2.35;;;18.90;99.90;;;;;;5052828;28;20393;-73
2021/06/12 13:10:35;;;;;;;3.38;3.08;;;19.10;99.90;;;;;;5052827;28;20524;-73
2021/06/12 13:13:03;;;;;;;2.50;2.30;;;19.20;99.90;;;;;;5052680;28;20552;-74
2021/06/12 13:15:29;;;;;;;2.83;2.55;;;19.50;99.90;;;;;;5052520;28;20170;-73
2021/06/12 13:18:09;;;;;;;4.03;2.65;;;19.60;99.90;;;;;;5061371;28;20106;-73